sensor_id;sensor_type;location;lat;lon;timestamp;pressure;altitude;pressure_sealevel;temperature;humidity
28181;BME280;15464;50.988;10.318;2023-01-13T00:01:08;98032.69;;;8.65;93.97
28181;BME280;15464;50.988;10.318;2023-01-13T00:03:35;98036.16;;;8.65;94.28
28181;BME280;15464;50.988;10.318;2023-01-13T00:06:03;98026.97;;;8.60;94.72
28181;BME280;15464;50.988;10.318;2023-01-13T00:08:30;98026.97;;;8.60;94.70
28181;BME280;15464;50.988;10.318;2023-01-13T00:10:58;98017.78;;;8.64;94.18
28181;BME280;15464;50.988;10.318;2023-01-13T00:13:24;98018.63;;;8.64;94.25
28181;BME280;15464;50.988;10.318;2023-01-13T00:16:04;98028.50;;;8.62;94.62
28181;BME280;15464;50.988;10.318;2023-01-13T00:18:32;98009.03;;;8.63;94.18
28181;BME280;15464;50.988;10.318;2023-01-13T00:21:11;98018.63;;;8.64;94.61
28181;BME280;15464;50.988;10.318;2023-01-13T00:23:39;98008.63;;;8.68;94.56
28181;BME280;15464;50.988;10.318;2023-01-13T00:26:09;98017.53;;;8.67;94.59
28181;BME280;15464;50.988;10.318;2023-01-13T00:28:36;98028.34;;;8.64;94.79
28181;BME280;15464;50.988;10.318;2023-01-13T00:31:11;98009.72;;;8.65;94.53
28181;BME280;15464;50.988;10.318;2023-01-13T00:33:38;98010.69;;;8.64;94.49
28181;BME280;15464;50.988;10.318;2023-01-13T00:36:07;98013.06;;;8.67;94.73
28181;BME280;15464;50.988;10.318;2023-01-13T00:38:34;98018.34;;;8.67;94.21
28181;BME280;15464;50.988;10.318;2023-01-13T00:41:22;98014.47;;;8.62;94.79
28181;BME280;15464;50.988;10.318;2023-01-13T00:43:50;98000.25;;;8.63;95.42
28181;BME280;15464;50.988;10.318;2023-01-13T00:46:19;98008.34;;;8.61;95.08
28181;BME280;15464;50.988;10.318;2023-01-13T00:48:46;98003.91;;;8.62;95.35
28181;BME280;15464;50.988;10.318;2023-01-13T00:51:19;97997.78;;;8.61;94.96
28181;BME280;15464;50.988;10.318;2023-01-13T00:53:48;98002.75;;;8.64;94.90
28181;BME280;15464;50.988;10.318;2023-01-13T00:56:22;98001.38;;;8.60;95.24
28181;BME280;15464;50.988;10.318;2023-01-13T00:59:09;97997.78;;;8.61;95.77
28181;BME280;15464;50.988;10.318;2023-01-13T01:01:40;97994.28;;;8.61;95.67
28181;BME280;15464;50.988;10.318;2023-01-13T01:04:07;97997.78;;;8.61;95.84
28181;BME280;15464;50.988;10.318;2023-01-13T01:06:34;97999.41;;;8.62;95.96
28181;BME280;15464;50.988;10.318;2023-01-13T01:09:01;97997.34;;;8.56;96.35
28181;BME280;15464;50.988;10.318;2023-01-13T01:11:29;97991.78;;;8.59;96.32
28181;BME280;15464;50.988;10.318;2023-01-13T01:13:58;98004.69;;;8.62;96.25
28181;BME280;15464;50.988;10.318;2023-01-13T01:16:27;97999.72;;;8.59;96.33
28181;BME280;15464;50.988;10.318;2023-01-13T01:18:55;97996.09;;;8.60;96.96
28181;BME280;15464;50.988;10.318;2023-01-13T01:21:24;97999.16;;;8.65;96.41
28181;BME280;15464;50.988;10.318;2023-01-13T01:23:51;97994.13;;;8.62;96.85
28181;BME280;15464;50.988;10.318;2023-01-13T01:26:21;97997.78;;;8.61;96.84
28181;BME280;15464;50.988;10.318;2023-01-13T01:28:49;97990.81;;;8.60;96.95
28181;BME280;15464;50.988;10.318;2023-01-13T01:31:21;97992.22;;;8.55;97.57
28181;BME280;15464;50.988;10.318;2023-01-13T01:33:48;98005.13;;;8.58;97.57
28181;BME280;15464;50.988;10.318;2023-01-13T01:36:17;97988.31;;;8.59;97.40
28181;BME280;15464;50.988;10.318;2023-01-13T01:38:45;97981.91;;;8.61;97.21
28181;BME280;15464;50.988;10.318;2023-01-13T01:41:15;97978.56;;;8.59;97.18
28181;BME280;15464;50.988;10.318;2023-01-13T01:43:56;97992.50;;;8.61;97.21
28181;BME280;15464;50.988;10.318;2023-01-13T01:46:41;97980.38;;;8.59;97.32
28181;BME280;15464;50.988;10.318;2023-01-13T01:49:43;97982.47;;;8.55;97.71
28181;BME280;15464;50.988;10.318;2023-01-13T01:52:29;97979.53;;;8.58;97.40
28181;BME280;15464;50.988;10.318;2023-01-13T01:55:11;97991.50;;;8.62;97.58
28181;BME280;15464;50.988;10.318;2023-01-13T01:57:58;97994.13;;;8.62;97.42
28181;BME280;15464;50.988;10.318;2023-01-13T02:00:27;97983.00;;;8.68;97.69
28181;BME280;15464;50.988;10.318;2023-01-13T02:02:55;97979.69;;;8.66;97.88
28181;BME280;15464;50.988;10.318;2023-01-13T02:05:22;97989.41;;;8.66;97.92
28181;BME280;15464;50.988;10.318;2023-01-13T02:07:51;97983.28;;;8.65;97.78
28181;BME280;15464;50.988;10.318;2023-01-13T02:10:22;97971.88;;;8.65;97.58
28181;BME280;15464;50.988;10.318;2023-01-13T02:12:52;97966.31;;;8.68;98.08
28181;BME280;15464;50.988;10.318;2023-01-13T02:16:01;97975.75;;;8.70;97.81
28181;BME280;15464;50.988;10.318;2023-01-13T02:33:36;97963.50;;;8.69;98.99
28181;BME280;15464;50.988;10.318;2023-01-13T02:39:08;97954.91;;;8.67;99.63
28181;BME280;15464;50.988;10.318;2023-01-13T02:41:37;97960.47;;;8.64;100.00
28181;BME280;15464;50.988;10.318;2023-01-13T02:44:29;97953.38;;;8.65;100.00
28181;BME280;15464;50.988;10.318;2023-01-13T02:47:05;97963.25;;;8.63;100.00
28181;BME280;15464;50.988;10.318;2023-01-13T02:49:38;97962.41;;;8.62;100.00
28181;BME280;15464;50.988;10.318;2023-01-13T02:55:26;97957.44;;;8.59;100.00
28181;BME280;15464;50.988;10.318;2023-01-13T02:57:57;97944.34;;;8.58;100.00
28181;BME280;15464;50.988;10.318;2023-01-13T03:00:24;97938.09;;;8.59;100.00
28181;BME280;15464;50.988;10.318;2023-01-13T03:02:52;97939.63;;;8.61;100.00
28181;BME280;15464;50.988;10.318;2023-01-13T03:05:18;97930.69;;;8.62;100.00
28181;BME280;15464;50.988;10.318;2023-01-13T03:08:10;97932.38;;;8.63;100.00
28181;BME280;15464;50.988;10.318;2023-01-13T03:11:16;97934.59;;;8.68;99.70
28181;BME280;15464;50.988;10.318;2023-01-13T03:22:33;97929.00;;;8.71;99.33
28181;BME280;15464;50.988;10.318;2023-01-13T03:25:15;97939.59;;;8.71;99.13
28181;BME280;15464;50.988;10.318;2023-01-13T03:27:49;97941.25;;;8.72;99.56
28181;BME280;15464;50.988;10.318;2023-01-13T03:30:39;97935.00;;;8.73;99.23
28181;BME280;15464;50.988;10.318;2023-01-13T03:33:15;97940.41;;;8.71;99.94
28181;BME280;15464;50.988;10.318;2023-01-13T03:35:45;97925.53;;;8.70;99.74
28181;BME280;15464;50.988;10.318;2023-01-13T03:38:20;97944.59;;;8.74;100.00
28181;BME280;15464;50.988;10.318;2023-01-13T03:40:50;97934.16;;;8.72;100.00
28181;BME280;15464;50.988;10.318;2023-01-13T03:43:25;97931.53;;;8.72;100.00
28181;BME280;15464;50.988;10.318;2023-01-13T03:46:18;97924.81;;;8.68;100.00
28181;BME280;15464;50.988;10.318;2023-01-13T03:48:49;97929.84;;;8.71;99.94
28181;BME280;15464;50.988;10.318;2023-01-13T03:51:19;97915.66;;;8.72;99.30
28181;BME280;15464;50.988;10.318;2023-01-13T03:54:03;97910.38;;;8.72;98.59
28181;BME280;15464;50.988;10.318;2023-01-13T03:56:44;97906.44;;;8.76;98.86
28181;BME280;15464;50.988;10.318;2023-01-13T03:59:19;97900.88;;;8.79;98.18
28181;BME280;15464;50.988;10.318;2023-01-13T04:01:54;97891.97;;;8.80;97.81
28181;BME280;15464;50.988;10.318;2023-01-13T04:04:28;97899.75;;;8.82;97.38
28181;BME280;15464;50.988;10.318;2023-01-13T04:07:14;97901.56;;;8.81;97.19
28181;BME280;15464;50.988;10.318;2023-01-13T04:09:53;97902.56;;;8.80;97.05
28181;BME280;15464;50.988;10.318;2023-01-13T04:12:28;97896.44;;;8.80;96.77
28181;BME280;15464;50.988;10.318;2023-01-13T04:15:17;97895.44;;;8.81;97.48
28181;BME280;15464;50.988;10.318;2023-01-13T04:17:45;97891.97;;;8.80;97.26
28181;BME280;15464;50.988;10.318;2023-01-13T04:20:13;97908.66;;;8.81;97.13
28181;BME280;15464;50.988;10.318;2023-01-13T04:22:40;97907.53;;;8.83;97.14
28181;BME280;15464;50.988;10.318;2023-01-13T04:25:07;97903.91;;;8.84;97.25
28181;BME280;15464;50.988;10.318;2023-01-13T04:27:34;97895.53;;;8.89;96.89
28181;BME280;15464;50.988;10.318;2023-01-13T04:30:01;97908.91;;;8.87;96.81
28181;BME280;15464;50.988;10.318;2023-01-13T04:32:29;97905.28;;;8.88;96.47
28181;BME280;15464;50.988;10.318;2023-01-13T04:34:56;97899.59;;;8.83;96.50
28181;BME280;15464;50.988;10.318;2023-01-13T04:37:23;97901.13;;;8.86;96.30
28181;BME280;15464;50.988;10.318;2023-01-13T04:39:49;97900.00;;;8.88;96.65
28181;BME280;15464;50.988;10.318;2023-01-13T04:42:16;97901.81;;;8.88;96.31
28181;BME280;15464;50.988;10.318;2023-01-13T04:47:10;97898.75;;;8.93;95.58
28181;BME280;15464;50.988;10.318;2023-01-13T04:49:36;97894.44;;;8.92;95.64
28181;BME280;15464;50.988;10.318;2023-01-13T04:52:03;97905.00;;;8.92;95.74
28181;BME280;15464;50.988;10.318;2023-01-13T04:54:32;97907.06;;;8.98;94.77
28181;BME280;15464;50.988;10.318;2023-01-13T04:56:59;97900.81;;;8.99;94.86
28181;BME280;15464;50.988;10.318;2023-01-13T04:59:26;97895.66;;;8.97;94.64
28181;BME280;15464;50.988;10.318;2023-01-13T05:01:52;97898.28;;;8.97;94.92
28181;BME280;15464;50.988;10.318;2023-01-13T05:04:19;97901.66;;;8.89;96.19
28181;BME280;15464;50.988;10.318;2023-01-13T05:06:46;97906.16;;;8.79;98.07
28181;BME280;15464;50.988;10.318;2023-01-13T05:09:13;97931.91;;;8.77;99.37
28181;BME280;15464;50.988;10.318;2023-01-13T05:11:41;97943.25;;;8.60;97.89
28181;BME280;15464;50.988;10.318;2023-01-13T05:14:26;97972.75;;;8.46;99.95
28181;BME280;15464;50.988;10.318;2023-01-13T05:17:18;97992.75;;;8.20;95.99
28181;BME280;15464;50.988;10.318;2023-01-13T05:19:45;97982.06;;;8.12;95.76
28181;BME280;15464;50.988;10.318;2023-01-13T05:22:13;97979.41;;;8.02;95.85
28181;BME280;15464;50.988;10.318;2023-01-13T05:24:59;97993.03;;;7.97;94.57
28181;BME280;15464;50.988;10.318;2023-01-13T05:27:44;97992.47;;;7.84;96.36
28181;BME280;15464;50.988;10.318;2023-01-13T05:30:11;97997.88;;;7.83;96.26
28181;BME280;15464;50.988;10.318;2023-01-13T05:32:38;97990.50;;;7.67;96.72
28181;BME280;15464;50.988;10.318;2023-01-13T05:35:05;97994.66;;;7.60;97.18
28181;BME280;15464;50.988;10.318;2023-01-13T05:37:32;97994.66;;;7.60;97.95
28181;BME280;15464;50.988;10.318;2023-01-13T05:39:59;97992.09;;;7.39;99.50
28181;BME280;15464;50.988;10.318;2023-01-13T05:42:44;97999.44;;;7.36;100.00
28181;BME280;15464;50.988;10.318;2023-01-13T05:45:30;98005.09;;;7.31;100.00
28181;BME280;15464;50.988;10.318;2023-01-13T05:47:57;98007.19;;;7.27;100.00
28181;BME280;15464;50.988;10.318;2023-01-13T05:50:24;98006.47;;;7.25;100.00
28181;BME280;15464;50.988;10.318;2023-01-13T05:52:51;98020.25;;;7.29;100.00
28181;BME280;15464;50.988;10.318;2023-01-13T05:55:17;98008.97;;;7.17;100.00
28181;BME280;15464;50.988;10.318;2023-01-13T05:57:44;97997.69;;;7.15;100.00
28181;BME280;15464;50.988;10.318;2023-01-13T06:00:11;98021.44;;;7.15;100.00
28181;BME280;15464;50.988;10.318;2023-01-13T06:02:38;98052.53;;;6.91;100.00
28181;BME280;15464;50.988;10.318;2023-01-13T06:05:05;98061.84;;;6.95;99.83
28181;BME280;15464;50.988;10.318;2023-01-13T06:07:32;98071.50;;;6.85;100.00
28181;BME280;15464;50.988;10.318;2023-01-13T06:09:59;98078.56;;;6.84;99.80
28181;BME280;15464;50.988;10.318;2023-01-13T06:12:25;98086.16;;;6.78;99.52
28181;BME280;15464;50.988;10.318;2023-01-13T06:14:52;98067.78;;;6.67;96.95
28181;BME280;15464;50.988;10.318;2023-01-13T06:17:19;98082.88;;;6.65;94.40
28181;BME280;15464;50.988;10.318;2023-01-13T06:19:46;98099.47;;;6.56;95.52
28181;BME280;15464;50.988;10.318;2023-01-13T06:22:21;98094.22;;;6.44;94.78
28181;BME280;15464;50.988;10.318;2023-01-13T06:24:50;98088.44;;;6.30;93.78
28181;BME280;15464;50.988;10.318;2023-01-13T06:27:20;98085.78;;;6.30;95.62
28181;BME280;15464;50.988;10.318;2023-01-13T06:29:47;98062.03;;;6.09;96.57
28181;BME280;15464;50.988;10.318;2023-01-13T06:32:17;98063.16;;;5.95;98.45
28181;BME280;15464;50.988;10.318;2023-01-13T06:34:48;98048.41;;;6.04;98.93
28181;BME280;15464;50.988;10.318;2023-01-13T06:37:18;98051.75;;;6.06;98.80
28181;BME280;15464;50.988;10.318;2023-01-13T06:39:47;98048.41;;;6.04;99.66
28181;BME280;15464;50.988;10.318;2023-01-13T06:42:14;98054.19;;;5.98;100.00
28181;BME280;15464;50.988;10.318;2023-01-13T06:45:00;98055.59;;;6.02;100.00
28181;BME280;15464;50.988;10.318;2023-01-13T06:47:27;98055.59;;;6.02;100.00
28181;BME280;15464;50.988;10.318;2023-01-13T06:49:54;98062.25;;;6.06;100.00
28181;BME280;15464;50.988;10.318;2023-01-13T06:52:21;98068.97;;;6.10;100.00
28181;BME280;15464;50.988;10.318;2023-01-13T06:54:48;98073.41;;;6.10;100.00
28181;BME280;15464;50.988;10.318;2023-01-13T06:57:15;98063.72;;;6.10;100.00
28181;BME280;15464;50.988;10.318;2023-01-13T07:23:17;98082.78;;;5.80;100.00
28181;BME280;15464;50.988;10.318;2023-01-13T07:30:08;98056.34;;;5.71;100.00
28181;BME280;15464;50.988;10.318;2023-01-13T07:32:35;98013.06;;;5.63;100.00
28181;BME280;15464;50.988;10.318;2023-01-13T07:35:02;98020.28;;;5.61;100.00
28181;BME280;15464;50.988;10.318;2023-01-13T07:37:33;98023.84;;;5.60;100.00
28181;BME280;15464;50.988;10.318;2023-01-13T07:40:04;98008.06;;;5.60;100.00
28181;BME280;15464;50.988;10.318;2023-01-13T07:42:31;98014.81;;;5.42;100.00
28181;BME280;15464;50.988;10.318;2023-01-13T07:45:16;98037.03;;;5.49;100.00
28181;BME280;15464;50.988;10.318;2023-01-13T07:47:43;98029.84;;;5.51;100.00
28181;BME280;15464;50.988;10.318;2023-01-13T07:50:10;98025.19;;;5.55;100.00
28181;BME280;15464;50.988;10.318;2023-01-13T07:52:36;98033.78;;;5.57;100.00
28181;BME280;15464;50.988;10.318;2023-01-13T07:55:03;98058.53;;;5.54;100.00
28181;BME280;15464;50.988;10.318;2023-01-13T07:57:30;98054.47;;;5.50;100.00
28181;BME280;15464;50.988;10.318;2023-01-13T07:59:57;98064.75;;;5.53;100.00
28181;BME280;15464;50.988;10.318;2023-01-13T08:02:24;98071.91;;;5.51;100.00
28181;BME280;15464;50.988;10.318;2023-01-13T08:04:51;98072.53;;;5.55;100.00
28181;BME280;15464;50.988;10.318;2023-01-13T08:07:17;98068.34;;;5.52;100.00
28181;BME280;15464;50.988;10.318;2023-01-13T08:09:44;98074.81;;;5.48;100.00
28181;BME280;15464;50.988;10.318;2023-01-13T08:12:11;98077.19;;;5.51;100.00
28181;BME280;15464;50.988;10.318;2023-01-13T08:14:56;98054.34;;;5.52;99.53
28181;BME280;15464;50.988;10.318;2023-01-13T08:17:22;98047.56;;;5.49;99.75
28181;BME280;15464;50.988;10.318;2023-01-13T08:19:49;98044.31;;;5.46;99.12
28181;BME280;15464;50.988;10.318;2023-01-13T08:22:16;98048.38;;;5.50;99.74
28181;BME280;15464;50.988;10.318;2023-01-13T08:24:43;98047.56;;;5.49;99.88
28181;BME280;15464;50.988;10.318;2023-01-13T08:27:09;98057.09;;;5.50;99.41
28181;BME280;15464;50.988;10.318;2023-01-13T08:29:36;98045.88;;;5.48;99.61
28181;BME280;15464;50.988;10.318;2023-01-13T08:32:03;98056.03;;;5.42;99.46
28181;BME280;15464;50.988;10.318;2023-01-13T08:34:30;98069.56;;;5.37;99.75
28181;BME280;15464;50.988;10.318;2023-01-13T08:36:57;98067.25;;;5.33;99.75
28181;BME280;15464;50.988;10.318;2023-01-13T08:39:24;98071.00;;;5.30;99.35
28181;BME280;15464;50.988;10.318;2023-01-13T08:41:50;98067.75;;;5.26;99.49
28181;BME280;15464;50.988;10.318;2023-01-13T08:44:29;98075.53;;;5.28;99.51
28181;BME280;15464;50.988;10.318;2023-01-13T08:46:57;98076.00;;;5.33;99.75
28181;BME280;15464;50.988;10.318;2023-01-13T08:49:24;98075.03;;;5.34;99.97
28181;BME280;15464;50.988;10.318;2023-01-13T08:51:51;98073.13;;;5.36;99.71
28181;BME280;15464;50.988;10.318;2023-01-13T08:54:18;98078.25;;;5.38;100.00
28181;BME280;15464;50.988;10.318;2023-01-13T08:56:45;98076.25;;;5.41;100.00
28181;BME280;15464;50.988;10.318;2023-01-13T08:59:14;98082.69;;;5.48;99.18
28181;BME280;15464;50.988;10.318;2023-01-13T09:01:42;98085.31;;;5.48;99.44
28181;BME280;15464;50.988;10.318;2023-01-13T09:04:18;98094.63;;;5.52;99.71
28181;BME280;15464;50.988;10.318;2023-01-13T09:06:46;98093.31;;;5.58;99.26
28181;BME280;15464;50.988;10.318;2023-01-13T09:09:12;98094.41;;;5.66;98.82
28181;BME280;15464;50.988;10.318;2023-01-13T09:11:42;98094.13;;;5.69;99.28
28181;BME280;15464;50.988;10.318;2023-01-13T09:14:31;98101.66;;;5.85;98.46
28181;BME280;15464;50.988;10.318;2023-01-13T09:16:59;98102.50;;;5.97;97.83
28181;BME280;15464;50.988;10.318;2023-01-13T09:19:27;98106.78;;;6.09;97.36
28181;BME280;15464;50.988;10.318;2023-01-13T09:21:55;98104.88;;;6.11;96.03
28181;BME280;15464;50.988;10.318;2023-01-13T09:24:22;98107.00;;;6.17;96.64
28181;BME280;15464;50.988;10.318;2023-01-13T09:26:49;98105.91;;;6.20;96.58
28181;BME280;15464;50.988;10.318;2023-01-13T09:29:16;98109.16;;;6.23;95.60
28181;BME280;15464;50.988;10.318;2023-01-13T09:31:43;98111.19;;;6.20;95.69
28181;BME280;15464;50.988;10.318;2023-01-13T09:34:16;98117.50;;;6.28;96.39
28181;BME280;15464;50.988;10.318;2023-01-13T09:37:03;98115.22;;;6.35;95.28
28181;BME280;15464;50.988;10.318;2023-01-13T09:39:31;98120.38;;;6.36;94.58
28181;BME280;15464;50.988;10.318;2023-01-13T09:42:04;98121.56;;;6.32;94.45
28181;BME280;15464;50.988;10.318;2023-01-13T09:45:10;98129.72;;;6.29;95.57
28181;BME280;15464;50.988;10.318;2023-01-13T09:53:19;98128.34;;;6.46;94.08
28181;BME280;15464;50.988;10.318;2023-01-13T09:55:47;98131.88;;;6.56;94.83
28181;BME280;15464;50.988;10.318;2023-01-13T09:58:16;98137.81;;;6.69;94.21
28181;BME280;15464;50.988;10.318;2023-01-13T10:00:54;98143.31;;;6.77;91.90
28181;BME280;15464;50.988;10.318;2023-01-13T10:03:30;98127.50;;;6.77;91.12
28181;BME280;15464;50.988;10.318;2023-01-13T10:06:43;98131.69;;;6.80;90.56
28181;BME280;15464;50.988;10.318;2023-01-13T10:08:49;98112.72;;;6.86;91.36
28181;BME280;15464;50.988;10.318;2023-01-13T10:11:19;98132.00;;;6.86;90.75
28181;BME280;15464;50.988;10.318;2023-01-13T10:14:17;98125.19;;;6.84;90.23
28181;BME280;15464;50.988;10.318;2023-01-13T10:17:01;98125.06;;;6.85;88.08
28181;BME280;15464;50.988;10.318;2023-01-13T10:19:40;98115.09;;;6.89;88.08
28181;BME280;15464;50.988;10.318;2023-01-13T10:28:09;98098.44;;;6.88;89.85
28181;BME280;15464;50.988;10.318;2023-01-13T10:30:40;98111.50;;;6.90;89.71
28181;BME280;15464;50.988;10.318;2023-01-13T10:33:33;98115.53;;;6.94;89.61
28181;BME280;15464;50.988;10.318;2023-01-13T10:43:37;98111.88;;;6.85;89.21
28181;BME280;15464;50.988;10.318;2023-01-13T10:46:08;98106.34;;;6.88;89.72
28181;BME280;15464;50.988;10.318;2023-01-13T10:48:51;98116.53;;;6.93;90.39
28181;BME280;15464;50.988;10.318;2023-01-13T10:56:40;98118.56;;;7.10;88.20
28181;BME280;15464;50.988;10.318;2023-01-13T11:01:42;98124.09;;;7.07;89.49
28181;BME280;15464;50.988;10.318;2023-01-13T11:04:39;98131.03;;;7.08;89.04
28181;BME280;15464;50.988;10.318;2023-01-13T11:07:23;98140.09;;;7.15;84.61
28181;BME280;15464;50.988;10.318;2023-01-13T11:15:20;98151.69;;;7.24;84.39
28181;BME280;15464;50.988;10.318;2023-01-13T11:18:04;98148.00;;;7.15;83.92
28181;BME280;15464;50.988;10.318;2023-01-13T11:20:39;98155.47;;;7.10;84.56
28181;BME280;15464;50.988;10.318;2023-01-13T11:23:16;98153.53;;;7.12;83.92
28181;BME280;15464;50.988;10.318;2023-01-13T11:25:51;98159.41;;;7.16;84.30
28181;BME280;15464;50.988;10.318;2023-01-13T11:36:19;98153.66;;;7.32;79.28
28181;BME280;15464;50.988;10.318;2023-01-13T11:38:50;98154.81;;;7.39;81.16
28181;BME280;15464;50.988;10.318;2023-01-13T11:46:35;98168.81;;;7.60;80.14
28181;BME280;15464;50.988;10.318;2023-01-13T11:49:03;98150.53;;;7.68;76.21
28181;BME280;15464;50.988;10.318;2023-01-13T11:51:44;98149.72;;;7.77;75.47
28181;BME280;15464;50.988;10.318;2023-01-13T12:05:30;98150.00;;;7.74;74.55
28181;BME280;15464;50.988;10.318;2023-01-13T12:13:41;98151.66;;;7.75;76.21
28181;BME280;15464;50.988;10.318;2023-01-13T12:16:25;98151.41;;;7.78;74.75
28181;BME280;15464;50.988;10.318;2023-01-13T12:22:06;98151.97;;;7.82;74.79
28181;BME280;15464;50.988;10.318;2023-01-13T12:29:45;98151.66;;;7.75;70.85
28181;BME280;15464;50.988;10.318;2023-01-13T12:32:17;98151.81;;;7.74;72.47
28181;BME280;15464;50.988;10.318;2023-01-13T12:37:57;98150.56;;;7.78;72.64
28181;BME280;15464;50.988;10.318;2023-01-13T12:40:59;98152.25;;;7.79;72.11
28181;BME280;15464;50.988;10.318;2023-01-13T12:43:31;98145.25;;;7.68;70.79
28181;BME280;15464;50.988;10.318;2023-01-13T12:54:04;98127.78;;;7.77;71.49
28181;BME280;15464;50.988;10.318;2023-01-13T12:56:49;98128.59;;;7.77;69.39
28181;BME280;15464;50.988;10.318;2023-01-13T13:01:44;98142.50;;;7.79;69.87
28181;BME280;15464;50.988;10.318;2023-01-13T13:04:13;98150.00;;;7.74;68.85
28181;BME280;15464;50.988;10.318;2023-01-13T13:06:48;98140.66;;;7.70;69.13
28181;BME280;15464;50.988;10.318;2023-01-13T13:09:28;98140.66;;;7.70;68.44
28181;BME280;15464;50.988;10.318;2023-01-13T13:11:56;98149.28;;;7.72;66.49
28181;BME280;15464;50.988;10.318;2023-01-13T13:19:54;98150.97;;;7.73;68.96
28181;BME280;15464;50.988;10.318;2023-01-13T13:27:44;98147.63;;;7.71;67.83
28181;BME280;15464;50.988;10.318;2023-01-13T13:38:29;98126.94;;;7.76;66.95
28181;BME280;15464;50.988;10.318;2023-01-13T13:41:20;98136.22;;;8.10;66.90
28181;BME280;15464;50.988;10.318;2023-01-13T13:44:16;98139.22;;;7.96;63.68
28181;BME280;15464;50.988;10.318;2023-01-13T13:47:04;98152.00;;;7.91;66.83
28181;BME280;15464;50.988;10.318;2023-01-13T13:49:44;98150.59;;;7.87;67.35
28181;BME280;15464;50.988;10.318;2023-01-13T13:54:50;98146.91;;;7.69;66.42
28181;BME280;15464;50.988;10.318;2023-01-13T13:57:31;98139.81;;;7.69;68.45
28181;BME280;15464;50.988;10.318;2023-01-13T13:59:59;98137.13;;;7.90;67.95
28181;BME280;15464;50.988;10.318;2023-01-13T14:02:29;98138.88;;;8.10;67.80
28181;BME280;15464;50.988;10.318;2023-01-13T14:07:44;98141.56;;;8.30;66.37
28181;BME280;15464;50.988;10.318;2023-01-13T14:10:23;98148.22;;;8.24;65.50
28181;BME280;15464;50.988;10.318;2023-01-13T14:12:51;98149.94;;;8.35;65.73
28181;BME280;15464;50.988;10.318;2023-01-13T14:17:53;98147.16;;;8.06;65.05
28181;BME280;15464;50.988;10.318;2023-01-13T14:20:20;98140.78;;;7.99;63.95
28181;BME280;15464;50.988;10.318;2023-01-13T14:22:48;98161.44;;;7.94;63.92
28181;BME280;15464;50.988;10.318;2023-01-13T14:25:35;98162.81;;;7.88;65.06
28181;BME280;15464;50.988;10.318;2023-01-13T14:28:29;98169.06;;;7.87;65.21
28181;BME280;15464;50.988;10.318;2023-01-13T14:30:58;98169.03;;;7.78;65.82
28181;BME280;15464;50.988;10.318;2023-01-13T14:33:34;98177.53;;;7.81;65.75
28181;BME280;15464;50.988;10.318;2023-01-13T14:38:46;98186.59;;;7.58;67.38
28181;BME280;15464;50.988;10.318;2023-01-13T14:41:25;98185.69;;;7.48;66.79
28181;BME280;15464;50.988;10.318;2023-01-13T14:43:56;98187.09;;;7.52;68.06
28181;BME280;15464;50.988;10.318;2023-01-13T14:46:38;98201.34;;;7.40;66.81
28181;BME280;15464;50.988;10.318;2023-01-13T14:49:22;98203.25;;;7.38;67.55
28181;BME280;15464;50.988;10.318;2023-01-13T14:51:50;98210.59;;;7.34;68.63
28181;BME280;15464;50.988;10.318;2023-01-13T14:54:43;98210.28;;;7.27;69.43
28181;BME280;15464;50.988;10.318;2023-01-13T14:57:26;98221.59;;;7.18;68.15
28181;BME280;15464;50.988;10.318;2023-01-13T15:10:51;98251.41;;;6.98;71.87
28181;BME280;15464;50.988;10.318;2023-01-13T15:13:28;98265.78;;;6.94;72.64
28181;BME280;15464;50.988;10.318;2023-01-13T15:16:01;98292.91;;;6.85;73.26
28181;BME280;15464;50.988;10.318;2023-01-13T15:18:29;98319.09;;;6.55;78.70
28181;BME280;15464;50.988;10.318;2023-01-13T15:20:55;98316.66;;;6.07;84.94
28181;BME280;15464;50.988;10.318;2023-01-13T15:23:22;98307.28;;;5.81;87.78
28181;BME280;15464;50.988;10.318;2023-01-13T15:25:49;98292.81;;;5.86;88.18
28181;BME280;15464;50.988;10.318;2023-01-13T15:28:23;98308.44;;;5.77;89.34
28181;BME280;15464;50.988;10.318;2023-01-13T15:30:52;98307.03;;;5.73;90.47
28181;BME280;15464;50.988;10.318;2023-01-13T15:33:21;98317.63;;;5.60;90.09
28181;BME280;15464;50.988;10.318;2023-01-13T15:35:50;98308.91;;;5.71;90.45
28181;BME280;15464;50.988;10.318;2023-01-13T15:38:22;98306.66;;;5.66;90.92
28181;BME280;15464;50.988;10.318;2023-01-13T15:40:50;98307.84;;;5.62;91.32
28181;BME280;15464;50.988;10.318;2023-01-13T15:43:22;98309.38;;;5.64;91.03
28181;BME280;15464;50.988;10.318;2023-01-13T15:46:17;98316.31;;;5.65;90.79
28181;BME280;15464;50.988;10.318;2023-01-13T15:49:27;98319.16;;;5.62;91.50
28181;BME280;15464;50.988;10.318;2023-01-13T15:51:52;98321.00;;;5.62;92.12
28181;BME280;15464;50.988;10.318;2023-01-13T15:54:19;98319.44;;;5.71;91.63
28181;BME280;15464;50.988;10.318;2023-01-13T15:56:50;98324.94;;;5.67;91.49
28181;BME280;15464;50.988;10.318;2023-01-13T15:59:21;98318.59;;;5.70;90.66
28181;BME280;15464;50.988;10.318;2023-01-13T16:01:49;98316.91;;;5.69;91.29
28181;BME280;15464;50.988;10.318;2023-01-13T16:04:16;98329.22;;;5.68;90.88
28181;BME280;15464;50.988;10.318;2023-01-13T16:06:43;98328.28;;;5.69;90.25
28181;BME280;15464;50.988;10.318;2023-01-13T16:09:13;98330.81;;;5.71;90.32
28181;BME280;15464;50.988;10.318;2023-01-13T16:11:40;98335.69;;;5.64;91.29
28181;BME280;15464;50.988;10.318;2023-01-13T16:14:07;98340.94;;;5.64;91.39
28181;BME280;15464;50.988;10.318;2023-01-13T16:16:34;98338.31;;;5.64;91.36
28181;BME280;15464;50.988;10.318;2023-01-13T16:19:01;98346.22;;;5.64;91.81
28181;BME280;15464;50.988;10.318;2023-01-13T16:21:28;98360.09;;;5.66;91.80
28181;BME280;15464;50.988;10.318;2023-01-13T16:23:55;98367.03;;;5.67;92.00
28181;BME280;15464;50.988;10.318;2023-01-13T16:26:24;98377.56;;;5.67;92.50
28181;BME280;15464;50.988;10.318;2023-01-13T16:28:53;98384.44;;;5.57;94.14
28181;BME280;15464;50.988;10.318;2023-01-13T16:31:21;98393.53;;;5.53;96.03